createdAt,value
2018-12-26T00:00:10.622Z,67.11
2018-12-26T00:01:14.239Z,67.13
2018-12-26T00:02:20.676Z,67.10
2018-12-26T00:03:24.186Z,67.11
2018-12-26T00:04:27.673Z,67.12
2018-12-26T00:05:31.146Z,67.16
2018-12-26T00:06:34.554Z,67.16
2018-12-26T00:07:38.058Z,67.25
2018-12-26T00:08:41.487Z,67.40
2018-12-26T00:09:44.952Z,67.52
2018-12-26T00:10:48.402Z,67.47
2018-12-26T00:11:51.831Z,67.39
2018-12-26T00:12:55.257Z,67.35
2018-12-26T00:13:58.690Z,67.39
2018-12-26T00:15:02.148Z,67.24
2018-12-26T00:16:05.674Z,67.17
2018-12-26T00:17:09.244Z,67.21
2018-12-26T00:18:12.676Z,67.33
2018-12-26T00:19:16.181Z,67.35
2018-12-26T00:20:19.638Z,67.36
2018-12-26T00:21:23.086Z,67.34
2018-12-26T00:22:26.515Z,67.25
2018-12-26T00:23:29.947Z,67.30
2018-12-26T00:24:33.386Z,67.22
2018-12-26T00:25:36.841Z,67.22
2018-12-26T00:26:40.367Z,67.30
2018-12-26T00:27:43.794Z,67.29
2018-12-26T00:28:47.320Z,67.16
2018-12-26T00:29:50.756Z,67.18
2018-12-26T00:30:54.201Z,67.20
2018-12-26T00:31:57.654Z,67.30
2018-12-26T00:33:01.119Z,67.30
2018-12-26T00:34:04.534Z,67.16
2018-12-26T00:35:07.990Z,67.08
2018-12-26T00:36:11.447Z,67.27
2018-12-26T00:37:14.909Z,67.30
2018-12-26T00:38:18.344Z,67.23
2018-12-26T00:39:21.858Z,67.22
2018-12-26T00:40:25.296Z,67.24
2018-12-26T00:41:28.798Z,67.32
2018-12-26T00:42:32.233Z,67.39
2018-12-26T00:43:35.667Z,67.37
2018-12-26T00:44:39.109Z,67.29
2018-12-26T00:45:42.614Z,67.22
2018-12-26T00:46:46.141Z,67.42
2018-12-26T00:47:49.579Z,67.46
2018-12-26T00:48:53.008Z,67.58
2018-12-26T00:49:56.436Z,67.69
2018-12-26T00:50:59.873Z,67.69
2018-12-26T00:52:03.324Z,67.69
2018-12-26T00:53:06.758Z,67.71
2018-12-26T00:54:10.196Z,67.74
2018-12-26T00:55:13.637Z,67.79
2018-12-26T00:56:17.065Z,67.80
2018-12-26T00:57:20.590Z,67.80
2018-12-26T00:58:24.022Z,67.80
2018-12-26T00:59:27.451Z,67.84
2018-12-26T01:00:30.884Z,67.86
2018-12-26T01:01:34.348Z,67.85
2018-12-26T01:02:37.806Z,67.83
2018-12-26T01:03:41.256Z,67.86
2018-12-26T01:04:44.745Z,67.83
2018-12-26T01:05:48.203Z,67.74
2018-12-26T01:06:51.645Z,67.66
2018-12-26T01:07:55.286Z,67.55
2018-12-26T01:08:58.699Z,67.47
2018-12-26T01:10:02.142Z,67.42
2018-12-26T01:11:05.561Z,67.41
2018-12-26T01:12:09.142Z,67.50
2018-12-26T01:13:12.616Z,67.50
2018-12-26T01:14:16.051Z,67.46
2018-12-26T01:15:19.498Z,67.44
2018-12-26T01:16:22.936Z,67.37
2018-12-26T01:17:26.370Z,67.19
2018-12-26T01:18:29.841Z,67.07
2018-12-26T01:19:33.286Z,67.04
2018-12-26T01:20:36.730Z,67.06
2018-12-26T01:21:40.161Z,67.11
2018-12-26T01:22:43.597Z,67.17
2018-12-26T01:23:47.135Z,67.22
2018-12-26T01:24:50.582Z,67.22
2018-12-26T01:25:54.021Z,67.25
2018-12-26T01:26:57.460Z,67.28
2018-12-26T01:28:00.893Z,67.29
2018-12-26T01:29:04.423Z,67.29
2018-12-26T01:30:08.014Z,67.27
2018-12-26T01:31:11.452Z,67.24
2018-12-26T01:32:14.888Z,67.19
2018-12-26T01:33:18.320Z,67.20
2018-12-26T01:34:21.786Z,67.26
2018-12-26T01:35:25.315Z,67.27
2018-12-26T01:36:28.742Z,67.32
2018-12-26T01:37:32.254Z,67.39
2018-12-26T01:38:35.682Z,67.46
2018-12-26T01:39:39.126Z,67.53
2018-12-26T01:40:42.586Z,67.53
2018-12-26T01:41:46.027Z,67.44
2018-12-26T01:42:49.464Z,67.36
2018-12-26T01:43:52.973Z,67.36
2018-12-26T01:44:56.423Z,67.30
2018-12-26T01:45:59.874Z,67.36
2018-12-26T01:47:03.545Z,67.37
2018-12-26T01:48:06.985Z,67.36
2018-12-26T01:49:10.418Z,67.33
2018-12-26T01:50:13.952Z,67.50
2018-12-26T01:51:17.407Z,67.54
2018-12-26T01:52:20.849Z,67.70
2018-12-26T01:53:24.349Z,67.87
2018-12-26T01:54:27.845Z,67.93
2018-12-26T01:55:31.296Z,67.95
2018-12-26T01:56:34.785Z,68.00
2018-12-26T01:57:38.219Z,67.98
2018-12-26T01:58:41.668Z,67.99
2018-12-26T01:59:45.092Z,67.99
2018-12-26T02:00:48.713Z,68.02
2018-12-26T02:01:52.134Z,68.01
2018-12-26T02:02:55.571Z,67.97
2018-12-26T02:03:59.150Z,67.92
2018-12-26T02:05:02.622Z,67.91
2018-12-26T02:06:06.111Z,67.81
2018-12-26T02:07:09.641Z,67.82
2018-12-26T02:08:13.081Z,67.83
2018-12-26T02:09:16.591Z,67.84
2018-12-26T02:10:20.029Z,67.83
2018-12-26T02:11:23.497Z,67.85
2018-12-26T02:12:26.972Z,67.87
2018-12-26T02:13:30.398Z,67.80
2018-12-26T02:14:33.831Z,67.75
2018-12-26T02:15:37.347Z,67.79
2018-12-26T02:16:40.786Z,67.80
2018-12-26T02:17:44.240Z,67.78
2018-12-26T02:18:47.743Z,67.77
2018-12-26T02:19:51.266Z,67.72
2018-12-26T02:20:54.939Z,67.70
2018-12-26T02:21:58.400Z,67.72
2018-12-26T02:23:01.852Z,67.71
2018-12-26T02:24:05.365Z,67.76
2018-12-26T02:25:08.933Z,67.74
2018-12-26T02:26:12.478Z,67.74
2018-12-26T02:27:15.891Z,67.74
2018-12-26T02:28:19.355Z,67.78
2018-12-26T02:29:22.798Z,67.76
2018-12-26T02:30:26.227Z,67.76
2018-12-26T02:31:29.659Z,67.74
2018-12-26T02:32:33.179Z,67.73
2018-12-26T02:33:36.666Z,67.75
2018-12-26T02:34:40.104Z,67.72
2018-12-26T02:35:43.676Z,67.69
2018-12-26T02:36:47.120Z,67.65
2018-12-26T02:37:50.574Z,67.65
2018-12-26T02:38:54.037Z,67.59
2018-12-26T02:39:57.469Z,67.51
2018-12-26T02:41:00.973Z,67.44
2018-12-26T02:42:04.597Z,67.42
2018-12-26T02:43:08.127Z,67.36
2018-12-26T02:44:11.577Z,67.34
2018-12-26T02:45:15.083Z,67.31
2018-12-26T02:46:18.521Z,67.29
2018-12-26T02:47:22.031Z,67.27
2018-12-26T02:48:25.482Z,67.22
2018-12-26T02:49:28.940Z,67.26
2018-12-26T02:50:32.442Z,67.27
2018-12-26T02:51:35.875Z,67.29
2018-12-26T02:52:39.307Z,67.28
2018-12-26T02:53:43.294Z,67.28
2018-12-26T02:54:46.748Z,67.26
2018-12-26T02:55:50.175Z,67.25
2018-12-26T02:56:53.610Z,67.24
2018-12-26T02:57:57.045Z,67.21
2018-12-26T02:59:00.489Z,67.21
2018-12-26T03:00:05.680Z,67.19
2018-12-26T03:01:09.182Z,67.17
2018-12-26T03:02:12.624Z,67.13
2018-12-26T03:03:16.186Z,67.14
2018-12-26T03:04:19.631Z,67.15
2018-12-26T03:05:23.086Z,67.15
2018-12-26T03:06:26.515Z,67.03
2018-12-26T03:07:30.028Z,67.17
2018-12-26T03:08:33.458Z,67.27
2018-12-26T03:09:36.915Z,67.28
2018-12-26T03:10:40.367Z,67.22
2018-12-26T03:11:43.796Z,67.14
2018-12-26T03:12:47.245Z,66.91
2018-12-26T03:13:50.821Z,66.88
2018-12-26T03:14:54.405Z,66.87
2018-12-26T03:15:57.840Z,66.84
2018-12-26T03:17:01.272Z,66.85
2018-12-26T03:18:04.784Z,66.87
2018-12-26T03:19:08.217Z,66.89
2018-12-26T03:20:11.667Z,66.90
2018-12-26T03:21:15.116Z,66.85
2018-12-26T03:22:18.553Z,66.76
2018-12-26T03:23:21.991Z,66.91
2018-12-26T03:24:25.430Z,67.13
2018-12-26T03:25:28.901Z,67.27
2018-12-26T03:26:32.339Z,67.57
2018-12-26T03:27:35.766Z,67.66
2018-12-26T03:28:39.198Z,67.78
2018-12-26T03:29:42.640Z,67.82
2018-12-26T03:30:46.170Z,67.74
2018-12-26T03:31:49.616Z,67.68
2018-12-26T03:32:53.045Z,67.60
2018-12-26T03:33:56.466Z,67.41
2018-12-26T03:34:59.905Z,67.33
2018-12-26T03:36:03.359Z,67.22
2018-12-26T03:37:06.953Z,67.21
2018-12-26T03:38:10.372Z,67.17
2018-12-26T03:39:13.885Z,67.13
2018-12-26T03:40:17.450Z,67.06
2018-12-26T03:41:21.080Z,67.06
2018-12-26T03:42:24.620Z,66.97
2018-12-26T03:43:28.191Z,67.00
2018-12-26T03:44:32.684Z,66.97
2018-12-26T03:45:36.185Z,66.89
2018-12-26T03:46:39.788Z,66.84
2018-12-26T03:47:43.885Z,66.77
2018-12-26T03:48:47.400Z,66.69
2018-12-26T03:49:50.979Z,66.65
2018-12-26T03:50:54.416Z,66.61
2018-12-26T03:51:57.942Z,66.59
2018-12-26T03:53:01.559Z,66.60
2018-12-26T03:54:05.063Z,66.83
2018-12-26T03:55:08.575Z,66.98
2018-12-26T03:56:12.171Z,67.04
2018-12-26T03:57:15.627Z,67.04
2018-12-26T03:58:19.146Z,67.12
2018-12-26T03:59:22.674Z,67.27
2018-12-26T04:00:26.220Z,67.30
2018-12-26T04:01:29.717Z,67.17
2018-12-26T04:02:33.169Z,67.23
2018-12-26T04:03:36.758Z,67.31
2018-12-26T04:04:40.431Z,67.36
2018-12-26T04:05:43.941Z,67.55
2018-12-26T04:06:47.382Z,67.55
2018-12-26T04:07:51.193Z,67.80
2018-12-26T04:08:54.698Z,67.93
2018-12-26T04:09:58.198Z,67.97
2018-12-26T04:11:01.986Z,67.90
2018-12-26T04:12:05.490Z,67.85
2018-12-26T04:13:08.949Z,67.81
2018-12-26T04:14:12.468Z,67.78
2018-12-26T04:15:15.903Z,67.70
2018-12-26T04:16:19.472Z,67.60
2018-12-26T04:17:23.254Z,67.61
2018-12-26T04:18:26.883Z,67.63
2018-12-26T04:19:30.465Z,67.64
2018-12-26T04:20:34.140Z,67.69
2018-12-26T04:21:38.012Z,67.77
2018-12-26T04:22:41.526Z,67.86
2018-12-26T04:23:44.990Z,68.22
2018-12-26T04:24:48.579Z,68.26
2018-12-26T04:25:52.193Z,68.26
2018-12-26T04:26:55.630Z,68.24
2018-12-26T04:27:59.048Z,68.17
2018-12-26T04:29:02.506Z,68.10
2018-12-26T04:30:08.713Z,68.06
2018-12-26T04:31:12.143Z,68.30
2018-12-26T04:32:15.587Z,68.29
2018-12-26T04:33:19.097Z,68.21
2018-12-26T04:34:22.550Z,68.12
2018-12-26T04:35:26.018Z,68.02
2018-12-26T04:36:29.451Z,67.90
2018-12-26T04:37:32.884Z,67.84
2018-12-26T04:38:36.394Z,67.76
2018-12-26T04:39:39.863Z,67.75
2018-12-26T04:40:43.309Z,67.65
2018-12-26T04:41:46.738Z,67.65
2018-12-26T04:42:50.226Z,67.64
2018-12-26T04:43:53.659Z,67.64
2018-12-26T04:44:57.105Z,67.68
2018-12-26T04:46:00.558Z,67.66
2018-12-26T04:47:04.062Z,67.61
2018-12-26T04:48:07.498Z,67.60
2018-12-26T04:49:10.935Z,67.61
2018-12-26T04:50:14.384Z,67.59
2018-12-26T04:51:17.854Z,67.58
2018-12-26T04:52:21.288Z,67.54
2018-12-26T04:53:24.724Z,67.33
2018-12-26T04:54:28.165Z,67.27
2018-12-26T04:55:31.622Z,67.20
2018-12-26T04:56:35.093Z,67.04
2018-12-26T04:57:38.510Z,66.93
2018-12-26T04:58:41.942Z,66.93
2018-12-26T04:59:45.378Z,66.92
2018-12-26T05:00:48.844Z,66.94
2018-12-26T05:01:52.357Z,66.92
2018-12-26T05:02:55.792Z,66.87
2018-12-26T05:03:59.242Z,66.94
2018-12-26T05:05:02.660Z,66.96
2018-12-26T05:06:06.114Z,66.99
2018-12-26T05:07:09.638Z,67.03
2018-12-26T05:08:13.069Z,67.05
2018-12-26T05:09:16.508Z,66.93
2018-12-26T05:10:19.948Z,66.81
2018-12-26T05:11:23.470Z,66.91
2018-12-26T05:12:27.048Z,66.92
2018-12-26T05:13:30.559Z,66.99
2018-12-26T05:14:34.053Z,67.03
2018-12-26T05:15:37.562Z,67.02
2018-12-26T05:16:41.088Z,67.02
2018-12-26T05:17:44.529Z,67.01
2018-12-26T05:18:48.098Z,67.07
2018-12-26T05:19:51.598Z,67.08
2018-12-26T05:20:55.103Z,67.09
2018-12-26T05:21:58.695Z,67.10
2018-12-26T05:23:02.275Z,67.10
2018-12-26T05:24:05.712Z,67.10
2018-12-26T05:25:09.210Z,67.03
2018-12-26T05:26:12.715Z,67.02
2018-12-26T05:27:16.171Z,66.98
2018-12-26T05:28:19.620Z,66.83
2018-12-26T05:29:23.047Z,66.95
2018-12-26T05:30:26.474Z,66.96
2018-12-26T05:31:29.986Z,66.97
2018-12-26T05:32:33.433Z,66.84
2018-12-26T05:33:36.871Z,66.78
2018-12-26T05:34:40.302Z,66.74
2018-12-26T05:35:43.737Z,66.79
2018-12-26T05:36:47.175Z,66.76
2018-12-26T05:37:50.697Z,66.72
2018-12-26T05:38:54.131Z,66.71
2018-12-26T05:39:57.568Z,66.79
2018-12-26T05:41:01.020Z,66.88
2018-12-26T05:42:04.539Z,67.07
2018-12-26T05:43:08.101Z,67.08
2018-12-26T05:44:11.536Z,67.02
2018-12-26T05:45:16.021Z,66.90
2018-12-26T05:46:19.582Z,66.84
2018-12-26T05:47:23.029Z,66.77
2018-12-26T05:48:26.474Z,66.74
2018-12-26T05:49:29.904Z,66.68
2018-12-26T05:50:33.351Z,66.67
2018-12-26T05:51:36.774Z,66.61
2018-12-26T05:52:40.225Z,66.58
2018-12-26T05:53:43.745Z,66.58
2018-12-26T05:54:47.173Z,66.63
2018-12-26T05:55:50.605Z,66.59
2018-12-26T05:56:54.042Z,66.57
2018-12-26T05:57:57.494Z,66.42
2018-12-26T05:59:00.927Z,66.31
2018-12-26T06:00:06.275Z,66.23
2018-12-26T06:01:09.704Z,66.23
2018-12-26T06:02:13.137Z,66.15
2018-12-26T06:03:16.591Z,66.12
2018-12-26T06:04:20.043Z,66.08
2018-12-26T06:05:23.479Z,66.09
2018-12-26T06:06:26.912Z,66.02
2018-12-26T06:07:30.346Z,66.02
2018-12-26T06:08:33.864Z,66.01
2018-12-26T06:09:37.324Z,65.97
2018-12-26T06:10:40.826Z,65.89
2018-12-26T06:11:44.320Z,65.84
2018-12-26T06:12:47.893Z,65.84
2018-12-26T06:13:51.337Z,65.75
2018-12-26T06:14:54.821Z,65.69
2018-12-26T06:15:58.405Z,65.60
2018-12-26T06:17:01.982Z,65.14
2018-12-26T06:18:05.418Z,65.11
2018-12-26T06:19:09.034Z,65.15
2018-12-26T06:20:12.485Z,65.15
2018-12-26T06:21:16.035Z,65.21
2018-12-26T06:22:19.481Z,65.25
2018-12-26T06:23:22.909Z,65.33
2018-12-26T06:24:26.360Z,65.32
2018-12-26T06:25:29.787Z,65.35
2018-12-26T06:26:33.220Z,65.42
2018-12-26T06:27:36.851Z,65.44
2018-12-26T06:28:40.660Z,65.38
2018-12-26T06:29:44.242Z,65.35
2018-12-26T06:30:47.849Z,65.38
2018-12-26T06:31:51.282Z,65.24
2018-12-26T06:32:54.752Z,65.28
2018-12-26T06:33:58.274Z,65.31
2018-12-26T06:35:01.737Z,65.17
2018-12-26T06:36:05.525Z,65.16
2018-12-26T06:37:08.984Z,65.16
2018-12-26T06:38:12.410Z,65.18
2018-12-26T06:39:15.870Z,65.14
2018-12-26T06:40:19.401Z,65.21
2018-12-26T06:41:22.855Z,65.10
2018-12-26T06:42:26.341Z,64.96
2018-12-26T06:43:29.765Z,65.08
2018-12-26T06:44:33.224Z,65.16
2018-12-26T06:45:36.671Z,65.03
2018-12-26T06:46:40.163Z,65.11
2018-12-26T06:47:43.623Z,65.06
2018-12-26T06:48:47.239Z,65.16
2018-12-26T06:49:50.849Z,65.21
2018-12-26T06:50:54.281Z,65.30
2018-12-26T06:51:57.723Z,65.30
2018-12-26T06:53:01.240Z,65.24
2018-12-26T06:54:04.830Z,65.28
2018-12-26T06:55:08.392Z,65.32
2018-12-26T06:56:11.862Z,65.37
2018-12-26T06:57:15.290Z,65.37
2018-12-26T06:58:18.792Z,65.29
2018-12-26T06:59:22.240Z,65.22
2018-12-26T07:00:25.742Z,65.36
2018-12-26T07:01:29.290Z,65.40
2018-12-26T07:02:32.729Z,65.51
2018-12-26T07:03:36.233Z,65.63
2018-12-26T07:04:39.816Z,65.65
2018-12-26T07:05:43.313Z,65.65
2018-12-26T07:06:46.761Z,65.66
2018-12-26T07:07:50.288Z,65.66
2018-12-26T07:08:53.789Z,65.70
2018-12-26T07:09:57.451Z,65.74
2018-12-26T07:11:01.043Z,65.76
2018-12-26T07:12:04.516Z,65.78
2018-12-26T07:13:08.168Z,65.77
2018-12-26T07:14:11.727Z,65.79
2018-12-26T07:15:15.181Z,65.74
2018-12-26T07:16:18.876Z,65.61
2018-12-26T07:17:22.382Z,65.54
2018-12-26T07:18:25.835Z,65.43
2018-12-26T07:19:29.323Z,65.30
2018-12-26T07:20:32.961Z,65.25
2018-12-26T07:21:36.436Z,65.29
2018-12-26T07:22:39.961Z,65.37
2018-12-26T07:23:43.543Z,65.35
2018-12-26T07:24:47.003Z,65.34
2018-12-26T07:25:50.450Z,65.35
2018-12-26T07:26:54.073Z,65.37
2018-12-26T07:27:57.581Z,65.42
2018-12-26T07:29:01.145Z,65.37
2018-12-26T07:30:05.703Z,65.36
2018-12-26T07:31:09.277Z,65.38
2018-12-26T07:32:12.774Z,65.44
2018-12-26T07:33:16.291Z,65.51
2018-12-26T07:34:19.810Z,65.56
2018-12-26T07:35:23.238Z,65.50
2018-12-26T07:36:26.804Z,65.43
2018-12-26T07:37:30.572Z,65.40
2018-12-26T07:38:34.131Z,65.40
2018-12-26T07:39:37.628Z,65.25
2018-12-26T07:40:41.201Z,65.37
2018-12-26T07:41:44.665Z,65.48
2018-12-26T07:42:48.135Z,65.50
2018-12-26T07:43:51.616Z,65.42
2018-12-26T07:44:55.162Z,65.46
2018-12-26T07:45:58.698Z,65.40
2018-12-26T07:47:02.143Z,65.38
2018-12-26T07:48:05.859Z,65.47
2018-12-26T07:49:09.443Z,65.55
2018-12-26T07:50:12.941Z,65.37
2018-12-26T07:51:16.483Z,65.50
2018-12-26T07:52:20.066Z,65.47
2018-12-26T07:53:23.594Z,65.20
2018-12-26T07:54:27.035Z,65.39
2018-12-26T07:55:30.618Z,65.46
2018-12-26T07:56:34.224Z,65.58
2018-12-26T07:57:37.901Z,65.66
2018-12-26T07:58:41.403Z,65.66
2018-12-26T07:59:44.889Z,65.74
2018-12-26T08:00:48.502Z,65.86
2018-12-26T08:01:51.951Z,65.90
2018-12-26T08:02:55.447Z,65.90
2018-12-26T08:03:58.940Z,65.88
2018-12-26T08:05:02.509Z,65.87
2018-12-26T08:06:06.072Z,65.85
2018-12-26T08:07:09.674Z,65.81
2018-12-26T08:08:13.129Z,65.72
2018-12-26T08:09:16.724Z,65.70
2018-12-26T08:10:20.249Z,65.68
2018-12-26T08:11:23.680Z,65.74
2018-12-26T08:12:27.237Z,65.83
2018-12-26T08:13:30.706Z,65.87
2018-12-26T08:14:34.267Z,65.86
2018-12-26T08:15:37.923Z,65.80
2018-12-26T08:16:41.391Z,65.59
2018-12-26T08:17:44.856Z,65.46
2018-12-26T08:18:48.339Z,65.37
2018-12-26T08:19:52.133Z,65.44
2018-12-26T08:20:55.643Z,65.57
2018-12-26T08:21:59.140Z,65.61
2018-12-26T08:23:02.647Z,65.68
2018-12-26T08:24:06.103Z,65.70
2018-12-26T08:25:09.591Z,65.45
2018-12-26T08:26:13.235Z,65.28
2018-12-26T08:27:16.670Z,65.34
2018-12-26T08:28:26.604Z,65.26
2018-12-26T08:29:25.232Z,65.09
2018-12-26T08:30:28.662Z,65.02
2018-12-26T08:31:32.092Z,65.28
2018-12-26T08:32:35.531Z,65.33
2018-12-26T08:33:39.051Z,65.27
2018-12-26T08:34:42.487Z,65.11
2018-12-26T08:35:45.936Z,65.19
2018-12-26T08:36:49.374Z,65.23
2018-12-26T08:37:52.810Z,65.22
2018-12-26T08:38:56.242Z,65.18
2018-12-26T08:39:59.692Z,65.26
2018-12-26T08:41:03.137Z,65.23
2018-12-26T08:42:06.566Z,65.25
2018-12-26T08:43:09.994Z,65.28
2018-12-26T08:44:13.532Z,65.30
2018-12-26T08:45:17.027Z,65.34
2018-12-26T08:46:20.476Z,65.33
2018-12-26T08:47:23.916Z,65.04
2018-12-26T08:48:27.348Z,65.17
2018-12-26T08:49:30.785Z,65.16
2018-12-26T08:50:34.240Z,65.19
2018-12-26T08:51:37.760Z,65.13
2018-12-26T08:52:41.193Z,64.78
2018-12-26T08:53:44.671Z,64.74
2018-12-26T08:54:48.123Z,64.64
2018-12-26T08:55:51.564Z,64.51
2018-12-26T08:56:55.033Z,64.75
2018-12-26T08:57:58.462Z,64.76
2018-12-26T08:59:01.960Z,64.48
2018-12-26T09:00:07.598Z,64.34
2018-12-26T09:01:11.049Z,64.33
2018-12-26T09:02:14.497Z,64.43
2018-12-26T09:03:17.926Z,64.48
2018-12-26T09:04:21.340Z,64.44
2018-12-26T09:05:24.798Z,64.27
2018-12-26T09:06:28.245Z,64.00
2018-12-26T09:07:31.768Z,63.87
2018-12-26T09:08:35.265Z,63.80
2018-12-26T09:09:38.698Z,63.85
2018-12-26T09:10:42.161Z,64.00
2018-12-26T09:11:45.641Z,64.23
2018-12-26T09:12:49.117Z,63.97
2018-12-26T09:13:52.540Z,63.56
2018-12-26T09:14:55.969Z,63.57
2018-12-26T09:15:59.475Z,63.19
2018-12-26T09:17:02.999Z,63.33
2018-12-26T09:18:06.442Z,63.24
2018-12-26T09:19:09.866Z,62.99
2018-12-26T09:20:13.375Z,62.99
2018-12-26T09:21:16.813Z,63.37
2018-12-26T09:22:20.350Z,63.08
2018-12-26T09:23:23.803Z,63.15
2018-12-26T09:24:27.230Z,63.04
2018-12-26T09:25:30.897Z,63.20
2018-12-26T09:26:34.769Z,62.68
2018-12-26T09:27:38.355Z,62.73
2018-12-26T09:28:43.863Z,62.76
2018-12-26T09:29:47.312Z,62.61
2018-12-26T09:30:50.872Z,62.78
2018-12-26T09:31:54.296Z,62.60
2018-12-26T09:32:57.966Z,62.65
2018-12-26T09:34:01.530Z,62.48
2018-12-26T09:35:07.617Z,62.19
2018-12-26T09:36:11.057Z,62.13
2018-12-26T09:37:14.482Z,62.49
2018-12-26T09:38:17.994Z,62.42
2018-12-26T09:39:21.427Z,62.33
2018-12-26T09:40:25.026Z,62.33
2018-12-26T09:41:28.525Z,62.53
2018-12-26T09:42:31.952Z,62.47
2018-12-26T09:43:35.563Z,62.42
2018-12-26T09:44:39.134Z,61.89
2018-12-26T09:45:42.624Z,62.02
2018-12-26T09:46:46.097Z,62.10
2018-12-26T09:47:49.611Z,62.15
2018-12-26T09:48:53.052Z,62.30
2018-12-26T09:49:56.513Z,62.22
2018-12-26T09:50:59.972Z,62.20
2018-12-26T09:52:03.395Z,62.12
2018-12-26T09:53:07.000Z,61.55
2018-12-26T09:54:10.465Z,61.57
2018-12-26T09:55:14.022Z,61.54
2018-12-26T09:56:17.550Z,61.11
2018-12-26T09:57:20.967Z,61.13
2018-12-26T09:58:24.402Z,61.19
2018-12-26T09:59:28.073Z,61.32
2018-12-26T10:00:31.491Z,61.31
2018-12-26T10:01:34.954Z,60.24
2018-12-26T10:02:38.534Z,60.06
2018-12-26T10:03:42.142Z,59.78
2018-12-26T10:04:45.561Z,59.85
2018-12-26T10:05:49.058Z,60.42
2018-12-26T10:06:52.482Z,60.69
2018-12-26T10:07:56.131Z,60.70
2018-12-26T10:08:59.816Z,60.21
2018-12-26T10:10:03.770Z,59.94
2018-12-26T10:11:07.224Z,60.12
2018-12-26T10:12:10.793Z,60.61
2018-12-26T10:13:14.282Z,60.92
2018-12-26T10:14:17.933Z,61.13
2018-12-26T10:15:21.489Z,60.89
2018-12-26T10:16:25.010Z,61.03
2018-12-26T10:17:28.485Z,60.99
2018-12-26T10:18:31.980Z,60.49
2018-12-26T10:19:35.564Z,60.27
2018-12-26T10:20:39.068Z,60.34
2018-12-26T10:21:42.593Z,60.31
2018-12-26T10:22:46.100Z,60.32
2018-12-26T10:23:49.596Z,59.77
2018-12-26T10:24:53.030Z,59.65
2018-12-26T10:25:56.810Z,59.93
2018-12-26T10:27:00.384Z,59.84
2018-12-26T10:28:03.883Z,60.06
2018-12-26T10:29:10.610Z,60.12
2018-12-26T10:30:14.000Z,60.16
2018-12-26T10:31:17.559Z,60.40
2018-12-26T10:32:21.429Z,60.10
2018-12-26T10:33:24.922Z,60.35
2018-12-26T10:34:28.417Z,60.13
2018-12-26T10:35:31.973Z,60.11
2018-12-26T10:36:35.704Z,60.23
2018-12-26T10:37:41.087Z,60.36
2018-12-26T10:38:44.388Z,60.25
2018-12-26T10:39:48.046Z,60.20
2018-12-26T10:40:51.457Z,59.56
2018-12-26T10:41:54.916Z,58.78
2018-12-26T10:42:58.690Z,58.86
2018-12-26T10:44:02.064Z,58.31
2018-12-26T10:45:06.226Z,58.05
2018-12-26T10:46:09.709Z,58.08
2018-12-26T10:47:13.216Z,58.47
2018-12-26T10:48:16.834Z,58.77
2018-12-26T10:49:20.432Z,58.64
2018-12-26T10:50:23.834Z,58.42
2018-12-26T10:51:27.354Z,58.50
2018-12-26T10:52:30.800Z,57.99
2018-12-26T10:53:34.281Z,58.07
2018-12-26T10:54:37.794Z,58.06
2018-12-26T10:55:41.323Z,57.95
2018-12-26T10:56:44.732Z,58.09
2018-12-26T10:57:48.171Z,57.78
2018-12-26T10:58:51.681Z,57.42
2018-12-26T10:59:55.290Z,57.06
2018-12-26T11:00:58.725Z,56.91
2018-12-26T11:02:02.228Z,56.06
2018-12-26T11:03:05.666Z,55.76
2018-12-26T11:04:09.100Z,53.60
2018-12-26T11:05:12.522Z,54.23
2018-12-26T11:06:15.951Z,53.62
2018-12-26T11:07:19.385Z,53.12
2018-12-26T11:08:22.832Z,52.67
2018-12-26T11:09:26.308Z,52.53
2018-12-26T11:10:29.728Z,52.96
2018-12-26T11:11:33.163Z,52.98
2018-12-26T11:12:36.592Z,53.01
2018-12-26T11:13:40.106Z,53.22
2018-12-26T11:14:43.543Z,52.80
2018-12-26T11:15:47.268Z,52.63
2018-12-26T11:16:51.901Z,52.13
2018-12-26T11:17:56.311Z,52.25
2018-12-26T11:19:00.094Z,52.55
2018-12-26T11:20:05.764Z,52.88
2018-12-26T11:21:09.257Z,53.22
2018-12-26T11:22:12.758Z,52.90
2018-12-26T11:23:16.189Z,52.60
2018-12-26T11:24:19.709Z,52.91
2018-12-26T11:25:23.219Z,52.64
2018-12-26T11:26:26.647Z,52.62
2018-12-26T11:27:30.133Z,52.04
2018-12-26T11:28:33.555Z,51.64
2018-12-26T11:29:37.193Z,52.20
2018-12-26T11:30:40.700Z,52.63
2018-12-26T11:31:44.135Z,52.83
2018-12-26T11:32:47.563Z,52.62
2018-12-26T11:33:51.060Z,52.72
2018-12-26T11:34:54.500Z,52.58
2018-12-26T11:35:57.975Z,52.45
2018-12-26T11:37:01.509Z,51.92
2018-12-26T11:38:05.055Z,52.29
2018-12-26T11:39:08.639Z,52.06
2018-12-26T11:40:12.125Z,52.10
2018-12-26T11:41:15.691Z,52.03
2018-12-26T11:42:19.253Z,51.93
2018-12-26T11:43:22.674Z,51.98
2018-12-26T11:44:26.122Z,52.18
2018-12-26T11:45:29.632Z,52.27
2018-12-26T11:46:33.188Z,52.39
2018-12-26T11:47:36.568Z,52.25
2018-12-26T11:48:40.062Z,52.15
2018-12-26T11:49:43.486Z,52.26
2018-12-26T11:50:47.079Z,51.96
2018-12-26T11:51:50.520Z,51.66
2018-12-26T11:52:54.094Z,51.53
2018-12-26T11:53:57.545Z,51.36
2018-12-26T11:55:01.115Z,51.26
2018-12-26T11:56:04.704Z,51.25
2018-12-26T11:57:08.203Z,51.07
2018-12-26T11:58:11.645Z,50.88
2018-12-26T11:59:15.097Z,50.58
2018-12-26T12:00:18.584Z,50.49
2018-12-26T12:01:22.021Z,50.51
2018-12-26T12:02:25.537Z,50.44
2018-12-26T12:03:29.044Z,50.32
2018-12-26T12:04:32.545Z,50.36
2018-12-26T12:05:36.111Z,50.06
2018-12-26T12:06:39.846Z,49.75
2018-12-26T12:07:43.384Z,50.15
2018-12-26T12:08:46.957Z,50.27
2018-12-26T12:09:50.489Z,50.01
2018-12-26T12:10:54.047Z,50.20
2018-12-26T12:11:57.651Z,50.20
2018-12-26T12:13:01.166Z,50.28
2018-12-26T12:14:04.784Z,50.36
2018-12-26T12:15:08.410Z,50.11
2018-12-26T12:16:11.905Z,50.20
2018-12-26T12:17:15.386Z,50.27
2018-12-26T12:18:18.838Z,49.23
2018-12-26T12:19:22.371Z,49.47
2018-12-26T12:20:25.885Z,49.45
2018-12-26T12:21:29.462Z,49.48
2018-12-26T12:22:33.019Z,49.27
2018-12-26T12:23:36.488Z,49.53
2018-12-26T12:24:39.927Z,49.61
2018-12-26T12:25:43.390Z,49.95
2018-12-26T12:26:46.827Z,49.87
2018-12-26T12:27:50.278Z,49.65
2018-12-26T12:28:53.864Z,49.45
2018-12-26T12:29:57.308Z,49.29
2018-12-26T12:31:00.754Z,49.46
2018-12-26T12:32:04.254Z,49.42
2018-12-26T12:33:07.711Z,49.74
2018-12-26T12:34:11.161Z,49.65
2018-12-26T12:35:14.660Z,49.60
2018-12-26T12:36:18.161Z,49.27
2018-12-26T12:37:21.737Z,49.42
2018-12-26T12:38:25.188Z,49.37
2018-12-26T12:39:28.710Z,49.25
2018-12-26T12:40:32.350Z,49.14
2018-12-26T12:41:35.862Z,49.25
2018-12-26T12:42:39.368Z,49.37
2018-12-26T12:43:42.832Z,49.48
2018-12-26T12:44:46.332Z,49.56
2018-12-26T12:45:49.851Z,49.28
2018-12-26T12:46:53.359Z,49.33
2018-12-26T12:47:56.921Z,49.42
2018-12-26T12:49:00.716Z,49.65
2018-12-26T12:50:04.989Z,49.49
2018-12-26T12:51:08.563Z,49.45
2018-12-26T12:52:11.994Z,49.08
2018-12-26T12:53:15.437Z,49.39
2018-12-26T12:54:18.885Z,49.64
2018-12-26T12:55:22.398Z,49.61
2018-12-26T12:56:25.966Z,49.80
2018-12-26T12:57:29.487Z,49.77
2018-12-26T12:58:32.920Z,49.75
2018-12-26T12:59:44.571Z,49.70
2018-12-26T13:00:41.681Z,49.60
2018-12-26T13:01:45.187Z,49.85
2018-12-26T13:02:48.770Z,49.71
2018-12-26T13:03:52.206Z,49.80
2018-12-26T13:04:55.722Z,49.57
2018-12-26T13:05:59.247Z,49.71
2018-12-26T13:07:02.799Z,49.72
2018-12-26T13:08:06.409Z,49.92
2018-12-26T13:09:09.852Z,49.89
2018-12-26T13:10:13.314Z,49.91
2018-12-26T13:11:16.768Z,49.96
2018-12-26T13:12:20.270Z,50.02
2018-12-26T13:13:23.713Z,50.18
2018-12-26T13:14:27.150Z,50.13
2018-12-26T13:15:30.663Z,50.23
2018-12-26T13:16:34.145Z,50.46
2018-12-26T13:17:37.651Z,50.64
2018-12-26T13:18:41.083Z,50.67
2018-12-26T13:19:44.518Z,50.72
2018-12-26T13:20:47.985Z,50.81
2018-12-26T13:21:51.527Z,50.85
2018-12-26T13:22:54.991Z,51.14
2018-12-26T13:23:58.430Z,51.32
2018-12-26T13:25:01.879Z,51.42
2018-12-26T13:26:05.348Z,51.25
2018-12-26T13:27:08.868Z,51.62
2018-12-26T13:28:12.314Z,51.87
2018-12-26T13:29:15.822Z,51.97
2018-12-26T13:30:19.289Z,52.20
2018-12-26T13:31:22.830Z,52.34
2018-12-26T13:32:26.362Z,52.51
2018-12-26T13:33:29.969Z,52.61
2018-12-26T13:34:33.437Z,52.19
2018-12-26T13:35:36.896Z,52.30
2018-12-26T13:36:40.486Z,52.35
2018-12-26T13:37:44.040Z,52.02